createdAt,value
2022-11-03T00:00:24.812Z,4.77
2022-11-03T00:01:24.855Z,4.83
2022-11-03T00:02:24.958Z,4.80
2022-11-03T00:03:24.799Z,4.74
2022-11-03T00:04:24.785Z,4.88
2022-11-03T00:05:24.756Z,4.87
2022-11-03T00:06:24.747Z,4.94
2022-11-03T00:07:24.737Z,4.84
2022-11-03T00:08:24.782Z,4.88
2022-11-03T00:09:24.713Z,4.96
2022-11-03T00:10:24.715Z,5.02
2022-11-03T00:11:24.691Z,5.05
2022-11-03T00:12:24.682Z,4.94
2022-11-03T00:13:24.674Z,4.96
2022-11-03T00:14:24.700Z,4.99
2022-11-03T00:15:24.649Z,5.02
2022-11-03T00:16:24.780Z,5.02
2022-11-03T00:17:24.628Z,5.06
2022-11-03T00:18:24.617Z,5.14
2022-11-03T00:19:24.626Z,5.09
2022-11-03T00:20:24.694Z,5.20
2022-11-03T00:21:24.586Z,5.17
2022-11-03T00:22:24.587Z,5.08
2022-11-03T00:23:24.560Z,5.04
2022-11-03T00:24:24.551Z,4.94
2022-11-03T00:25:24.543Z,5.06
2022-11-03T00:26:24.580Z,5.08
2022-11-03T00:27:24.534Z,5.08
2022-11-03T00:28:24.540Z,4.97
2022-11-03T00:29:24.496Z,5.06
2022-11-03T00:30:24.535Z,5.08
2022-11-03T00:31:24.483Z,5.08
2022-11-03T00:32:24.529Z,5.09
2022-11-03T00:33:24.470Z,5.01
2022-11-03T00:34:24.464Z,5.01
2022-11-03T00:35:24.487Z,5.02
2022-11-03T00:36:24.422Z,4.97
2022-11-03T00:37:24.415Z,5.02
2022-11-03T00:38:24.486Z,4.84
2022-11-03T00:39:24.402Z,4.90
2022-11-03T00:40:24.381Z,4.93
2022-11-03T00:41:24.363Z,4.90
2022-11-03T00:42:24.354Z,5.01
2022-11-03T00:43:24.347Z,4.96
2022-11-03T00:44:24.402Z,5.12
2022-11-03T00:45:24.332Z,5.01
2022-11-03T00:46:24.312Z,4.93
2022-11-03T00:47:24.499Z,4.97
2022-11-03T00:48:24.289Z,4.80
2022-11-03T00:49:24.291Z,5.05
2022-11-03T00:50:24.356Z,5.04
2022-11-03T00:51:24.274Z,4.97
2022-11-03T00:52:24.264Z,5.04
2022-11-03T00:53:24.234Z,4.99
2022-11-03T00:54:24.223Z,5.14
2022-11-03T00:55:24.213Z,5.15
2022-11-03T00:56:24.249Z,5.12
2022-11-03T00:57:24.189Z,5.14
2022-11-03T00:58:24.196Z,5.29
2022-11-03T00:59:24.167Z,5.20
2022-11-03T01:00:24.158Z,5.23
2022-11-03T01:01:24.311Z,5.26
2022-11-03T01:02:24.391Z,5.24
2022-11-03T01:03:24.123Z,5.23
2022-11-03T01:04:24.113Z,5.19
2022-11-03T01:05:24.101Z,5.14
2022-11-03T01:06:24.095Z,5.23
2022-11-03T01:07:24.111Z,5.22
2022-11-03T01:08:26.674Z,5.19
2022-11-03T01:09:24.087Z,5.15
2022-11-03T01:10:24.060Z,5.12
2022-11-03T01:11:24.062Z,5.06
2022-11-03T01:12:24.038Z,5.05
2022-11-03T01:13:24.035Z,5.06
2022-11-03T01:14:24.015Z,5.08
2022-11-03T01:15:24.009Z,5.06
2022-11-03T01:16:23.983Z,5.05
2022-11-03T01:17:23.970Z,5.02
2022-11-03T01:18:23.994Z,4.84
2022-11-03T01:19:23.955Z,4.88
2022-11-03T01:20:23.942Z,5.12
2022-11-03T01:21:23.927Z,5.27
2022-11-03T01:22:24.033Z,5.24
2022-11-03T01:23:23.936Z,5.04
2022-11-03T01:24:23.895Z,5.01
2022-11-03T01:25:23.965Z,4.90
2022-11-03T01:26:23.872Z,4.90
2022-11-03T01:27:23.873Z,4.94
2022-11-03T01:28:23.851Z,4.88
2022-11-03T01:29:23.840Z,4.97
2022-11-03T01:30:23.891Z,5.05
2022-11-03T01:31:23.818Z,5.11
2022-11-03T01:32:23.815Z,5.14
2022-11-03T01:33:23.796Z,5.22
2022-11-03T01:34:23.794Z,5.12
2022-11-03T01:35:23.772Z,5.05
2022-11-03T01:36:23.808Z,4.96
2022-11-03T01:37:23.754Z,5.04
2022-11-03T01:38:23.752Z,5.17
2022-11-03T01:39:23.746Z,5.22
2022-11-03T01:40:23.719Z,5.17
2022-11-03T01:41:23.708Z,5.12
2022-11-03T01:42:23.750Z,5.19
2022-11-03T01:43:23.696Z,5.19
2022-11-03T01:44:23.678Z,5.23
2022-11-03T01:45:23.665Z,5.14
2022-11-03T01:46:23.663Z,5.09
2022-11-03T01:47:23.648Z,5.12
2022-11-03T01:48:23.716Z,5.26
2022-11-03T01:49:23.633Z,5.15
2022-11-03T01:50:23.618Z,5.23
2022-11-03T01:51:23.597Z,5.27
2022-11-03T01:52:23.585Z,5.27
2022-11-03T01:53:23.574Z,5.26
2022-11-03T01:54:23.652Z,5.33
2022-11-03T01:55:23.576Z,5.20
2022-11-03T01:56:23.541Z,5.22
2022-11-03T01:57:23.530Z,5.19
2022-11-03T01:58:23.522Z,5.09
2022-11-03T01:59:23.520Z,5.11
2022-11-03T02:00:23.574Z,5.12
2022-11-03T02:01:23.724Z,5.05
2022-11-03T02:02:23.526Z,4.91
2022-11-03T02:03:23.485Z,5.06
2022-11-03T02:04:23.454Z,5.08
2022-11-03T02:05:23.453Z,5.23
2022-11-03T02:06:23.496Z,5.12
2022-11-03T02:07:23.422Z,5.08
2022-11-03T02:08:23.411Z,5.08
2022-11-03T02:09:23.398Z,5.14
2022-11-03T02:10:23.395Z,5.17
2022-11-03T02:11:23.397Z,5.06
2022-11-03T02:12:23.426Z,5.05
2022-11-03T02:13:23.362Z,5.14
2022-11-03T02:14:23.342Z,5.20
2022-11-03T02:15:23.348Z,5.17
2022-11-03T02:16:23.321Z,5.20
2022-11-03T02:17:23.312Z,5.32
2022-11-03T02:18:23.406Z,5.37
2022-11-03T02:19:23.301Z,5.27
2022-11-03T02:20:23.281Z,5.35
2022-11-03T02:21:23.273Z,5.38
2022-11-03T02:22:23.328Z,5.48
2022-11-03T02:23:23.245Z,5.40
2022-11-03T02:24:23.298Z,5.29
2022-11-03T02:25:23.224Z,5.30
2022-11-03T02:26:23.216Z,5.30
2022-11-03T02:27:23.221Z,5.33
2022-11-03T02:28:23.202Z,5.30
2022-11-03T02:29:23.179Z,5.37
2022-11-03T02:30:23.231Z,5.37
2022-11-03T02:31:23.157Z,5.42
2022-11-03T02:32:23.143Z,5.35
2022-11-03T02:33:23.136Z,5.48
2022-11-03T02:34:23.134Z,5.45
2022-11-03T02:35:23.114Z,5.48
2022-11-03T02:36:23.135Z,5.42
2022-11-03T02:37:23.090Z,5.51
2022-11-03T02:38:23.077Z,5.45
2022-11-03T02:39:23.082Z,5.35
2022-11-03T02:40:23.057Z,5.41
2022-11-03T02:41:23.166Z,5.40
2022-11-03T02:42:23.034Z,5.42
2022-11-03T02:43:23.046Z,5.52
2022-11-03T02:44:23.030Z,5.55
2022-11-03T02:45:23.003Z,5.48
2022-11-03T02:46:22.991Z,5.47
2022-11-03T02:47:23.053Z,5.56
2022-11-03T02:48:22.969Z,5.51
2022-11-03T02:49:22.959Z,5.55
2022-11-03T02:50:22.960Z,5.52
2022-11-03T02:51:22.948Z,5.45
2022-11-03T02:52:22.925Z,5.40
2022-11-03T02:53:22.960Z,5.55
2022-11-03T02:54:22.902Z,5.40
2022-11-03T02:55:22.892Z,5.47
2022-11-03T02:56:22.880Z,5.45
2022-11-03T02:57:22.885Z,5.37
2022-11-03T02:58:22.860Z,5.29
2022-11-03T02:59:22.919Z,5.14
2022-11-03T03:00:22.841Z,5.14
2022-11-03T03:01:22.916Z,5.09
2022-11-03T03:02:22.876Z,5.02
2022-11-03T03:03:22.814Z,5.09
2022-11-03T03:04:22.793Z,5.01
2022-11-03T03:05:22.904Z,5.14
2022-11-03T03:06:23.769Z,5.17
2022-11-03T03:07:22.772Z,5.22
2022-11-03T03:08:22.748Z,5.04
2022-11-03T03:09:22.740Z,5.23
2022-11-03T03:10:22.729Z,5.22
2022-11-03T03:11:22.928Z,5.09
2022-11-03T03:12:22.812Z,5.06
2022-11-03T03:13:22.695Z,5.04
2022-11-03T03:14:22.685Z,5.22
2022-11-03T03:15:22.694Z,5.17
2022-11-03T03:16:22.681Z,5.23
2022-11-03T03:17:22.716Z,5.22
2022-11-03T03:18:22.650Z,5.24
2022-11-03T03:19:22.636Z,5.29
2022-11-03T03:20:22.616Z,5.30
2022-11-03T03:21:22.608Z,5.29
2022-11-03T03:22:22.607Z,5.44
2022-11-03T03:23:22.632Z,5.30
2022-11-03T03:24:22.573Z,5.32
2022-11-03T03:25:22.570Z,5.37
2022-11-03T03:26:22.549Z,5.35
2022-11-03T03:27:22.553Z,5.42
2022-11-03T03:28:22.540Z,5.35
2022-11-03T03:29:22.603Z,5.45
2022-11-03T03:30:22.506Z,5.29
2022-11-03T03:31:22.530Z,5.33
2022-11-03T03:32:22.489Z,5.24
2022-11-03T03:33:22.546Z,5.38
2022-11-03T03:34:34.512Z,5.40
2022-11-03T03:35:23.533Z,5.40
2022-11-03T03:36:22.440Z,5.40
2022-11-03T03:37:22.433Z,5.35
2022-11-03T03:38:22.433Z,5.44
2022-11-03T03:39:22.408Z,5.40
2022-11-03T03:40:22.398Z,5.32
2022-11-03T03:41:22.465Z,5.44
2022-11-03T03:42:22.375Z,5.37
2022-11-03T03:43:22.366Z,5.47
2022-11-03T03:44:22.460Z,5.42
2022-11-03T03:45:22.343Z,5.44
2022-11-03T03:46:22.331Z,5.49
2022-11-03T03:47:22.423Z,5.52
2022-11-03T03:48:22.308Z,5.51
2022-11-03T03:49:22.305Z,5.48
2022-11-03T03:50:22.298Z,5.49
2022-11-03T03:51:22.282Z,5.48
2022-11-03T03:52:22.267Z,5.51
2022-11-03T03:53:22.344Z,5.47
2022-11-03T03:54:22.246Z,5.38
2022-11-03T03:55:22.234Z,5.48
2022-11-03T03:56:22.231Z,5.42
2022-11-03T03:57:22.212Z,5.38
2022-11-03T03:58:22.201Z,5.58
2022-11-03T03:59:22.226Z,5.55
2022-11-03T04:00:22.275Z,5.56
2022-11-03T04:01:22.333Z,5.49
2022-11-03T04:02:22.250Z,5.45
2022-11-03T04:03:22.177Z,5.40
2022-11-03T04:04:22.149Z,5.55
2022-11-03T04:05:22.190Z,5.51
2022-11-03T04:06:22.126Z,5.45
2022-11-03T04:07:22.105Z,5.44
2022-11-03T04:08:22.100Z,5.38
2022-11-03T04:09:22.109Z,5.58
2022-11-03T04:10:22.070Z,5.45
2022-11-03T04:11:22.179Z,5.51
2022-11-03T04:12:22.045Z,5.44
2022-11-03T04:13:22.038Z,5.42
2022-11-03T04:14:22.023Z,5.48
2022-11-03T04:15:22.015Z,5.62
2022-11-03T04:16:22.012Z,5.48
2022-11-03T04:17:22.106Z,5.52
2022-11-03T04:18:22.003Z,5.47
2022-11-03T04:19:21.995Z,5.60
2022-11-03T04:20:21.981Z,5.55
2022-11-03T04:21:21.947Z,5.63
2022-11-03T04:22:22.034Z,5.60
2022-11-03T04:23:21.940Z,5.69
2022-11-03T04:24:21.925Z,5.60
2022-11-03T04:25:21.914Z,5.59
2022-11-03T04:26:22.010Z,5.75
2022-11-03T04:27:21.899Z,5.63
2022-11-03T04:28:21.870Z,5.77
2022-11-03T04:29:21.917Z,5.66
2022-11-03T04:30:21.848Z,5.63
2022-11-03T04:31:21.841Z,5.66
2022-11-03T04:32:21.828Z,5.69
2022-11-03T04:33:21.828Z,5.74
2022-11-03T04:34:21.855Z,5.70
2022-11-03T04:35:21.814Z,5.83
2022-11-03T04:36:21.787Z,5.80
2022-11-03T04:37:21.773Z,5.83
2022-11-03T04:38:21.761Z,5.78
2022-11-03T04:39:21.760Z,5.77
2022-11-03T04:40:21.836Z,5.74
2022-11-03T04:41:21.727Z,5.70
2022-11-03T04:42:21.720Z,5.67
2022-11-03T04:43:21.708Z,5.70
2022-11-03T04:44:21.757Z,5.75
2022-11-03T04:45:21.696Z,5.80
2022-11-03T04:46:21.712Z,5.78
2022-11-03T04:47:21.664Z,5.83
2022-11-03T04:48:21.651Z,5.74
2022-11-03T04:49:21.765Z,5.77
2022-11-03T04:50:21.629Z,5.77
2022-11-03T04:51:21.643Z,5.77
2022-11-03T04:52:21.683Z,5.67
2022-11-03T04:53:21.597Z,5.73
2022-11-03T04:54:21.585Z,5.69
2022-11-03T04:55:21.589Z,5.78
2022-11-03T04:56:21.562Z,5.74
2022-11-03T04:57:21.555Z,5.65
2022-11-03T04:58:21.635Z,5.69
2022-11-03T04:59:21.544Z,5.69
2022-11-03T05:00:21.519Z,5.65
2022-11-03T05:01:24.274Z,5.74
2022-11-03T05:02:21.498Z,5.66
2022-11-03T05:03:21.490Z,5.66
2022-11-03T05:04:21.540Z,5.75
2022-11-03T05:05:21.485Z,5.63
2022-11-03T05:06:21.455Z,5.75
2022-11-03T05:07:21.463Z,5.60
2022-11-03T05:08:21.432Z,5.67
2022-11-03T05:09:21.469Z,5.59
2022-11-03T05:10:21.489Z,5.66
2022-11-03T05:11:21.413Z,5.69
2022-11-03T05:12:21.385Z,5.65
2022-11-03T05:13:21.379Z,5.56
2022-11-03T05:14:21.368Z,5.75
2022-11-03T05:15:21.366Z,5.66
2022-11-03T05:16:21.415Z,5.59
2022-11-03T05:17:21.333Z,5.84
2022-11-03T05:18:21.341Z,5.69
2022-11-03T05:19:21.311Z,5.83
2022-11-03T05:20:21.408Z,5.95
2022-11-03T05:21:21.291Z,5.73
2022-11-03T05:22:21.384Z,5.80
2022-11-03T05:23:21.288Z,5.80
2022-11-03T05:24:21.254Z,5.66
2022-11-03T05:25:21.245Z,5.60
2022-11-03T05:26:21.246Z,5.75
2022-11-03T05:27:21.234Z,5.70
2022-11-03T05:28:21.272Z,5.65
2022-11-03T05:29:21.200Z,5.78
2022-11-03T05:30:21.187Z,5.70
2022-11-03T05:31:21.189Z,5.83
2022-11-03T05:32:21.179Z,5.73
2022-11-03T05:33:21.159Z,5.75
2022-11-03T05:34:21.221Z,5.81
2022-11-03T05:35:21.137Z,5.84
2022-11-03T05:36:21.122Z,5.88
2022-11-03T05:37:26.113Z,5.84
2022-11-03T05:38:22.099Z,5.92
2022-11-03T05:39:21.110Z,5.92
2022-11-03T05:40:21.388Z,5.73
2022-11-03T05:41:21.068Z,5.65
2022-11-03T05:42:21.054Z,5.67
2022-11-03T05:43:21.110Z,5.84
2022-11-03T05:44:21.038Z,5.69
2022-11-03T05:45:21.060Z,5.85
2022-11-03T05:46:21.092Z,5.90
2022-11-03T05:47:21.011Z,5.78
2022-11-03T05:48:20.997Z,5.78
2022-11-03T05:49:21.043Z,5.92
2022-11-03T05:50:21.078Z,5.92
2022-11-03T05:51:20.957Z,5.95
2022-11-03T05:52:21.061Z,5.80
2022-11-03T05:53:20.935Z,5.88
2022-11-03T05:54:20.963Z,5.92
2022-11-03T05:55:20.972Z,5.93
2022-11-03T05:56:20.955Z,6.03
2022-11-03T05:57:20.891Z,5.93
2022-11-03T05:58:20.959Z,5.84
2022-11-03T05:59:20.889Z,5.92
2022-11-03T06:00:20.861Z,5.93
2022-11-03T06:01:20.961Z,5.93
2022-11-03T06:02:20.938Z,5.87
2022-11-03T06:03:20.825Z,5.84
2022-11-03T06:04:20.888Z,5.80
2022-11-03T06:05:20.805Z,5.90
2022-11-03T06:06:20.794Z,5.87
2022-11-03T06:07:20.793Z,5.80
2022-11-03T06:08:20.815Z,5.81
2022-11-03T06:09:20.758Z,5.93
2022-11-03T06:10:20.821Z,5.96
2022-11-03T06:11:20.798Z,5.95
2022-11-03T06:12:20.729Z,6.08
2022-11-03T06:13:20.714Z,5.95
2022-11-03T06:14:24.011Z,5.98
2022-11-03T06:15:20.701Z,5.88
2022-11-03T06:16:20.789Z,5.93
2022-11-03T06:17:20.672Z,5.92
2022-11-03T06:18:20.675Z,5.93
2022-11-03T06:19:20.648Z,6.02
2022-11-03T06:20:20.640Z,5.95
2022-11-03T06:21:20.637Z,6.03
2022-11-03T06:22:20.656Z,6.01
2022-11-03T06:23:20.606Z,6.03
2022-11-03T06:24:20.618Z,5.96
2022-11-03T06:25:20.584Z,6.05
2022-11-03T06:26:20.590Z,6.10
2022-11-03T06:27:20.581Z,6.11
2022-11-03T06:28:20.591Z,6.16
2022-11-03T06:29:20.541Z,6.16
2022-11-03T06:30:20.532Z,6.20
2022-11-03T06:31:23.067Z,6.20
2022-11-03T06:32:20.521Z,6.19
2022-11-03T06:33:20.507Z,6.17
2022-11-03T06:34:20.540Z,6.19
2022-11-03T06:35:20.473Z,6.25
2022-11-03T06:36:20.464Z,6.27
2022-11-03T06:37:20.451Z,6.33
2022-11-03T06:38:20.458Z,6.32
2022-11-03T06:39:20.433Z,6.33
2022-11-03T06:40:20.499Z,6.43
2022-11-03T06:41:20.409Z,6.45
2022-11-03T06:42:20.398Z,6.40
2022-11-03T06:43:20.508Z,6.32
2022-11-03T06:44:20.375Z,6.45
2022-11-03T06:45:20.367Z,6.45
2022-11-03T06:46:20.423Z,6.43
2022-11-03T06:47:20.340Z,6.43
2022-11-03T06:48:20.332Z,6.54
2022-11-03T06:49:20.333Z,6.46
2022-11-03T06:50:20.311Z,6.60
2022-11-03T06:51:20.296Z,6.61
2022-11-03T06:52:20.363Z,6.61
2022-11-03T06:53:20.275Z,6.58
2022-11-03T06:54:20.265Z,6.63
2022-11-03T06:55:20.264Z,6.65
2022-11-03T06:56:20.254Z,6.68
2022-11-03T06:57:20.229Z,6.64
2022-11-03T06:58:20.281Z,6.73
2022-11-03T06:59:20.227Z,6.72
2022-11-03T07:00:33.537Z,6.73
2022-11-03T07:01:21.348Z,6.71
2022-11-03T07:02:20.301Z,6.73
2022-11-03T07:03:20.164Z,6.81
2022-11-03T07:04:20.212Z,6.71
2022-11-03T07:05:20.141Z,6.69
2022-11-03T07:06:20.136Z,6.75
2022-11-03T07:07:20.135Z,6.69
2022-11-03T07:08:20.110Z,6.75
2022-11-03T07:09:20.097Z,6.65
2022-11-03T07:10:20.183Z,6.90
2022-11-03T07:11:20.093Z,6.86
2022-11-03T07:12:20.086Z,6.87
2022-11-03T07:13:20.070Z,6.97
2022-11-03T07:14:20.055Z,6.91
2022-11-03T07:15:20.054Z,6.94
2022-11-03T07:16:20.092Z,7.01
2022-11-03T07:17:20.011Z,7.00
2022-11-03T07:18:20.012Z,7.16
2022-11-03T07:19:19.998Z,7.07
2022-11-03T07:20:19.984Z,7.18
2022-11-03T07:21:19.966Z,7.27
2022-11-03T07:22:20.032Z,7.16
2022-11-03T07:23:19.956Z,7.11
2022-11-03T07:24:19.935Z,7.33
2022-11-03T07:25:19.923Z,7.44
2022-11-03T07:26:19.913Z,7.50
2022-11-03T07:27:19.899Z,7.50
2022-11-03T07:28:19.989Z,7.50
2022-11-03T07:29:19.892Z,7.63
2022-11-03T07:30:19.871Z,7.67
2022-11-03T07:31:19.880Z,7.69
2022-11-03T07:32:19.849Z,7.70
2022-11-03T07:33:19.837Z,7.71
2022-11-03T07:34:19.889Z,7.82
2022-11-03T07:35:19.834Z,7.91
2022-11-03T07:36:19.804Z,7.82
2022-11-03T07:37:19.801Z,7.94
2022-11-03T07:38:19.782Z,7.94
2022-11-03T07:39:19.768Z,7.85
2022-11-03T07:40:19.856Z,7.70
2022-11-03T07:41:19.756Z,7.74
2022-11-03T07:42:19.753Z,7.73
2022-11-03T07:43:19.726Z,7.63
2022-11-03T07:44:19.717Z,7.63
2022-11-03T07:45:19.703Z,7.55
2022-11-03T07:46:19.826Z,7.57
2022-11-03T07:47:19.707Z,7.67
2022-11-03T07:48:19.775Z,7.58
2022-11-03T07:49:19.662Z,7.55
2022-11-03T07:50:19.652Z,7.57
2022-11-03T07:51:19.638Z,7.69
2022-11-03T07:52:19.724Z,7.63
2022-11-03T07:53:24.811Z,7.62
2022-11-03T07:54:20.607Z,7.71
2022-11-03T07:55:19.594Z,7.85
2022-11-03T07:56:19.663Z,8.00
2022-11-03T07:57:19.571Z,8.12
2022-11-03T07:58:19.640Z,8.29
2022-11-03T07:59:19.572Z,8.42
2022-11-03T08:00:19.543Z,8.57
2022-11-03T08:01:19.582Z,8.52
2022-11-03T08:02:19.665Z,8.54
2022-11-03T08:03:19.528Z,8.45
2022-11-03T08:04:19.598Z,8.55
2022-11-03T08:06:20.182Z,9.08
2022-11-03T08:07:19.481Z,9.55
2022-11-03T08:08:19.456Z,10.07
2022-11-03T08:09:19.446Z,10.35
2022-11-03T08:10:19.481Z,10.29
2022-11-03T08:11:21.944Z,10.51
2022-11-03T08:12:20.421Z,10.63
2022-11-03T08:13:19.397Z,10.46
2022-11-03T08:14:19.390Z,10.68
2022-11-03T08:15:19.374Z,10.70
2022-11-03T08:16:19.507Z,11.20
2022-11-03T08:17:19.352Z,11.48
2022-11-03T08:18:19.355Z,11.59
2022-11-03T08:19:19.348Z,11.60
2022-11-03T08:20:19.317Z,11.78
2022-11-03T08:21:19.310Z,11.67
2022-11-03T08:22:19.350Z,11.70
2022-11-03T08:23:25.729Z,11.96
2022-11-03T08:24:20.273Z,11.97
2022-11-03T08:25:19.267Z,11.70
2022-11-03T08:26:19.266Z,11.27
2022-11-03T08:27:19.246Z,11.26
2022-11-03T08:28:19.334Z,11.57
2022-11-03T08:29:19.230Z,12.07
2022-11-03T08:30:19.211Z,12.43
2022-11-03T08:31:19.202Z,12.55
2022-11-03T08:32:19.201Z,12.38
2022-11-03T08:33:19.297Z,12.05
2022-11-03T08:34:19.227Z,12.16
2022-11-03T08:35:19.178Z,11.84
2022-11-03T08:36:19.145Z,11.78
2022-11-03T08:37:19.149Z,11.57
2022-11-03T08:38:19.124Z,12.11
2022-11-03T08:39:19.113Z,12.58
2022-11-03T08:40:19.129Z,12.96
2022-11-03T08:41:19.091Z,12.95
2022-11-03T08:42:19.088Z,12.63
2022-11-03T08:43:19.067Z,12.58
2022-11-03T08:44:19.054Z,12.87
2022-11-03T08:45:19.046Z,12.96
2022-11-03T08:46:19.093Z,12.74
2022-11-03T08:47:19.024Z,12.96
2022-11-03T08:48:19.009Z,13.07
2022-11-03T08:49:19.029Z,13.03
2022-11-03T08:50:18.988Z,13.36
2022-11-03T08:51:18.997Z,13.51
2022-11-03T08:52:19.040Z,13.32
2022-11-03T08:53:18.958Z,12.73
2022-11-03T08:54:18.951Z,12.62
2022-11-03T08:55:18.948Z,12.84
2022-11-03T08:56:21.960Z,12.77
2022-11-03T08:57:18.915Z,12.91
2022-11-03T08:58:18.976Z,13.03
2022-11-03T08:59:18.891Z,12.95
2022-11-03T09:00:18.878Z,13.12
2022-11-03T09:01:18.935Z,13.01
2022-11-03T09:02:18.919Z,12.89
2022-11-03T09:03:19.015Z,12.80
2022-11-03T09:04:18.878Z,12.58
2022-11-03T09:05:18.824Z,12.74
2022-11-03T09:06:18.811Z,12.73
2022-11-03T09:07:19.276Z,12.43
2022-11-03T09:10:22.051Z,12.13
2022-11-03T09:11:18.756Z,12.23
2022-11-03T09:12:18.774Z,11.81
2022-11-03T09:13:18.736Z,11.45
2022-11-03T09:14:18.733Z,11.84
2022-11-03T09:15:18.714Z,11.63
2022-11-03T09:16:18.745Z,11.51
2022-11-03T09:17:18.692Z,11.93
2022-11-03T09:18:18.680Z,12.03
2022-11-03T09:19:18.683Z,11.81
2022-11-03T09:20:18.656Z,11.54
2022-11-03T09:21:18.647Z,11.26
2022-11-03T09:22:18.680Z,11.77
2022-11-03T09:23:18.652Z,11.67
2022-11-03T09:24:18.617Z,11.84
2022-11-03T09:25:18.615Z,12.04
2022-11-03T09:26:18.591Z,12.01
2022-11-03T09:27:18.582Z,12.21
2022-11-03T09:28:18.687Z,12.62
2022-11-03T09:29:18.563Z,12.85
2022-11-03T09:30:18.556Z,12.92
2022-11-03T09:31:18.548Z,12.92
2022-11-03T09:32:22.945Z,12.81
2022-11-03T09:33:19.514Z,12.88
2022-11-03T09:34:18.527Z,13.13
2022-11-03T09:35:18.506Z,12.84
2022-11-03T09:36:18.494Z,12.73
2022-11-03T09:37:18.472Z,12.49
2022-11-03T09:38:18.466Z,12.38
2022-11-03T09:39:18.470Z,12.30
2022-11-03T09:40:18.484Z,12.31
2022-11-03T09:41:26.176Z,12.19
2022-11-03T09:42:19.416Z,12.30
2022-11-03T09:43:18.407Z,12.26
2022-11-03T09:44:18.391Z,12.30
2022-11-03T09:45:18.395Z,11.96
2022-11-03T09:46:18.424Z,11.78
2022-11-03T09:47:18.363Z,11.70
2022-11-03T09:48:18.362Z,11.84
2022-11-03T09:49:18.343Z,11.74
2022-11-03T09:50:18.333Z,11.88
2022-11-03T09:51:18.323Z,12.15
2022-11-03T09:52:18.347Z,12.40
2022-11-03T09:53:18.335Z,12.85
2022-11-03T09:54:18.284Z,13.13
2022-11-03T09:55:18.294Z,13.39
2022-11-03T09:56:18.263Z,13.68
2022-11-03T09:57:18.251Z,13.14
2022-11-03T09:58:18.285Z,13.14
2022-11-03T09:59:18.243Z,12.89
2022-11-03T10:00:18.223Z,13.09
2022-11-03T10:01:18.361Z,13.28
2022-11-03T10:02:18.279Z,13.06
2022-11-03T10:03:18.193Z,13.32
2022-11-03T10:04:18.215Z,13.71
2022-11-03T10:05:18.281Z,14.06
2022-11-03T10:06:18.169Z,13.65
2022-11-03T10:07:18.142Z,13.84
2022-11-03T10:08:21.430Z,13.84
2022-11-03T10:09:18.120Z,13.84
2022-11-03T10:10:18.171Z,13.84
2022-11-03T10:11:18.135Z,13.91
2022-11-03T10:12:18.089Z,13.79
2022-11-03T10:13:18.077Z,13.55
2022-11-03T10:14:18.067Z,13.62
2022-11-03T10:15:18.054Z,13.66
2022-11-03T10:16:18.128Z,13.38
2022-11-03T10:17:18.031Z,13.47
2022-11-03T10:18:18.089Z,13.48
2022-11-03T10:19:18.009Z,13.83
2022-11-03T10:20:18.126Z,13.81
2022-11-03T10:21:18.006Z,13.84
2022-11-03T10:22:18.038Z,13.86
2022-11-03T10:23:17.967Z,13.73
2022-11-03T10:24:17.957Z,13.50
2022-11-03T10:25:17.957Z,13.83
2022-11-03T10:26:17.937Z,13.76
2022-11-03T10:27:17.941Z,13.27
2022-11-03T10:28:17.981Z,13.21
2022-11-03T10:30:17.939Z,13.41
2022-11-03T10:31:17.877Z,13.44
2022-11-03T10:32:17.868Z,12.96
2022-11-03T10:33:17.855Z,12.89
2022-11-03T10:34:17.921Z,12.41
2022-11-03T10:35:17.833Z,12.49
2022-11-03T10:36:17.827Z,12.77
2022-11-03T10:37:17.811Z,12.95
2022-11-03T10:38:17.803Z,13.12
2022-11-03T10:39:17.790Z,13.19
2022-11-03T10:40:46.893Z,13.13
2022-11-03T10:41:18.768Z,13.29
2022-11-03T10:42:17.762Z,13.28
2022-11-03T10:43:17.762Z,13.44
2022-11-03T10:44:17.739Z,13.35
2022-11-03T10:45:17.731Z,13.36
2022-11-03T10:46:36.537Z,13.55
2022-11-03T10:47:18.703Z,13.53
2022-11-03T10:48:17.696Z,13.54
2022-11-03T10:49:17.694Z,13.48
2022-11-03T10:50:17.671Z,13.21
2022-11-03T10:51:17.673Z,13.12
2022-11-03T10:52:17.667Z,13.04
2022-11-03T10:53:17.679Z,12.95
2022-11-03T10:54:17.626Z,12.85
2022-11-03T10:55:20.583Z,12.76
2022-11-03T10:56:18.609Z,12.91
2022-11-03T10:57:17.591Z,12.80
2022-11-03T10:58:17.642Z,12.92
2022-11-03T10:59:17.608Z,12.77
2022-11-03T11:00:17.561Z,12.55
2022-11-03T11:01:17.730Z,12.48
2022-11-03T11:02:17.658Z,12.41
2022-11-03T11:03:20.695Z,12.54
2022-11-03T11:04:17.655Z,12.51
2022-11-03T11:05:17.518Z,12.41
2022-11-03T11:06:17.493Z,12.51
2022-11-03T11:07:17.492Z,12.29
2022-11-03T11:08:17.585Z,12.36
2022-11-03T11:09:17.460Z,12.44
2022-11-03T11:10:17.511Z,12.43
2022-11-03T11:11:17.446Z,12.22
2022-11-03T11:12:17.439Z,12.12
2022-11-03T11:13:17.417Z,12.26
2022-11-03T11:14:17.410Z,12.26
2022-11-03T11:15:17.418Z,12.25
2022-11-03T11:16:17.536Z,12.13
2022-11-03T11:17:17.373Z,12.12
2022-11-03T11:18:17.408Z,12.07
2022-11-03T11:19:17.352Z,12.13
2022-11-03T11:20:17.351Z,12.23
2022-11-03T11:21:17.328Z,12.48
2022-11-03T11:22:17.418Z,12.58
2022-11-03T11:23:17.318Z,12.59
2022-11-03T11:24:17.295Z,12.73
2022-11-03T11:25:17.283Z,12.77
2022-11-03T11:26:17.286Z,12.69
2022-11-03T11:27:17.264Z,12.61
2022-11-03T11:28:17.326Z,12.80
2022-11-03T11:29:17.238Z,12.81
2022-11-03T11:30:17.230Z,12.98
2022-11-03T11:31:17.236Z,12.94
2022-11-03T11:32:17.209Z,12.92
2022-11-03T11:33:17.197Z,12.81
2022-11-03T11:34:17.342Z,12.87
2022-11-03T11:35:17.174Z,12.52
2022-11-03T11:36:17.165Z,12.44
2022-11-03T11:37:17.153Z,12.40
2022-11-03T11:38:17.143Z,12.37
2022-11-03T11:39:17.145Z,12.33
2022-11-03T11:40:17.179Z,12.01
2022-11-03T11:41:17.107Z,12.01
2022-11-03T11:42:17.148Z,11.96
2022-11-03T11:43:17.084Z,11.82
2022-11-03T11:44:17.078Z,11.96
2022-11-03T11:45:17.072Z,11.87
2022-11-03T11:46:17.109Z,11.84
2022-11-03T11:47:17.067Z,11.98
2022-11-03T11:48:18.941Z,11.97
2022-11-03T11:49:17.029Z,11.97
2022-11-03T11:50:17.022Z,12.13
2022-11-03T11:51:16.997Z,12.15
2022-11-03T11:52:19.183Z,12.16
2022-11-03T11:53:16.977Z,12.23
2022-11-03T11:54:18.159Z,12.26
2022-11-03T11:55:16.954Z,12.19
2022-11-03T11:56:16.958Z,12.21
2022-11-03T11:57:16.933Z,12.29
2022-11-03T11:58:17.001Z,12.23
2022-11-03T11:59:21.435Z,12.26
2022-11-03T12:00:18.004Z,12.12
2022-11-03T12:01:16.968Z,11.93
2022-11-03T12:02:16.878Z,11.90
2022-11-03T12:03:16.948Z,11.78
2022-11-03T12:05:16.849Z,11.67
2022-11-03T12:06:16.849Z,11.59
2022-11-03T12:07:16.823Z,11.79
2022-11-03T12:08:16.821Z,11.79
2022-11-03T12:09:16.880Z,11.96
2022-11-03T12:10:16.806Z,11.87
2022-11-03T12:11:16.823Z,11.78
2022-11-03T12:12:16.772Z,11.85
2022-11-03T12:13:16.759Z,11.87
2022-11-03T12:14:16.749Z,11.84
2022-11-03T12:15:16.793Z,11.88
2022-11-03T12:16:16.739Z,11.90
2022-11-03T12:17:16.714Z,11.90
2022-11-03T12:18:16.706Z,12.04
2022-11-03T12:19:16.710Z,12.00
2022-11-03T12:20:16.697Z,11.90
2022-11-03T12:21:16.747Z,12.00
2022-11-03T12:22:16.677Z,12.01
2022-11-03T12:23:16.664Z,11.96
2022-11-03T12:24:16.640Z,11.96
2022-11-03T12:25:16.639Z,12.04
2022-11-03T12:26:16.620Z,11.88
2022-11-03T12:27:16.629Z,11.85
2022-11-03T12:28:16.595Z,11.77
2022-11-03T12:29:16.583Z,11.82
2022-11-03T12:30:16.579Z,11.93
2022-11-03T12:31:16.574Z,11.90
2022-11-03T12:32:32.277Z,11.88
2022-11-03T12:33:17.653Z,11.82
2022-11-03T12:34:16.543Z,11.70
2022-11-03T12:35:16.547Z,11.77
2022-11-03T12:36:16.508Z,11.70
2022-11-03T12:37:16.508Z,11.72
2022-11-03T12:38:16.499Z,11.74
2022-11-03T12:39:16.528Z,11.74
2022-11-03T12:40:16.466Z,11.63
2022-11-03T12:41:16.453Z,11.66
2022-11-03T12:42:16.450Z,11.67
2022-11-03T12:43:16.448Z,11.77
2022-11-03T12:44:16.538Z,11.75
2022-11-03T12:45:16.481Z,11.74
2022-11-03T12:46:16.401Z,11.78
2022-11-03T12:47:16.387Z,11.74
2022-11-03T12:48:16.380Z,11.69
2022-11-03T12:49:16.374Z,11.66
2022-11-03T12:50:16.367Z,11.51
2022-11-03T12:51:16.386Z,11.62
2022-11-03T12:52:16.338Z,11.53
2022-11-03T12:53:16.321Z,11.51
2022-11-03T12:54:16.313Z,11.56
2022-11-03T12:55:16.491Z,11.69
2022-11-03T12:56:16.287Z,11.54
2022-11-03T12:57:16.318Z,11.59
2022-11-03T12:58:16.270Z,11.66
2022-11-03T12:59:16.254Z,11.66
2022-11-03T13:00:16.247Z,11.57
2022-11-03T13:01:16.573Z,11.59
2022-11-03T13:02:16.327Z,11.72
2022-11-03T13:03:16.304Z,11.53
2022-11-03T13:04:16.202Z,11.59
2022-11-03T13:05:16.192Z,11.54
2022-11-03T13:06:16.206Z,11.51
2022-11-03T13:07:19.241Z,11.56
2022-11-03T13:09:16.216Z,11.54
2022-11-03T13:10:16.143Z,11.51
2022-11-03T13:11:16.121Z,11.49
2022-11-03T13:12:16.134Z,11.49
2022-11-03T13:13:16.103Z,11.57
2022-11-03T13:14:16.104Z,11.53